Terminal Aerodrome Forecast
Issued by NWS

Home | Current Version | Previous Version | Text Only | Print | Product List | Glossary On
Versions: 1 2 3 4 5 6 7 8 9 10 11 12 13 14 15 16 17 18 19 20 21
000
FTUS46 KSTO 241500 AAA
TAFSMF
TAF AMD
KSMF 241500Z 2415/2512 VRB03KT 4SM BR FEW003 FEW200
     FM242000 VRB03KT P6SM BKN250
     FM251000 VRB03KT 4SM BR FEW003 OVC150=

USA.gov is the U.S. government's official web portal to all federal, state and local government web resources and services.